Time;durP1;ratioP1;P1;durP2;ratioP2;P2;SDS_P1;SDS_P2;PMS_P1;PMS_P2;Temp;Humidity;BMP_temperature;BMP_pressure;BME280_temperature;BME280_humidity;BME280_pressure;Samples;Min_cycle;Max_cycle;Signal;HPM_P1;HPM_P2
2023/11/17 00:02:18;;;;;;;;;;;;;;;7.43;100.00;94491.28;10592263;27;2639;-70
2023/11/17 00:07:20;;;;;;;;;;;;;;;7.43;100.00;94503.88;10602870;27;2578;-71
2023/11/17 00:12:23;;;;;;;;;;;;;;;7.33;100.00;94496.78;10603238;27;5111;-70
2023/11/17 00:17:26;;;;;;;;;;;;;;;7.28;100.00;94496.81;10599971;27;2605;-70
2023/11/17 00:22:28;;;;;;;;;;;;;;;7.18;100.00;94510.28;10600698;27;2635;-70
2023/11/17 00:27:31;;;;;;;;;;;;;;;7.05;100.00;94563.31;10593442;27;2666;-72
2023/11/17 00:32:33;;;;;;;;;;;;;;;6.97;100.00;94563.91;10599116;27;2596;-71
2023/11/17 00:37:37;;;;;;;;;;;;;;;6.93;100.00;94562.88;10593232;27;2573;-72
2023/11/17 00:42:40;;;;;;;;;;;;;;;6.94;100.00;94556.47;10602372;27;2697;-70
2023/11/17 00:47:42;;;;;;;;;;;;;;;6.95;100.00;94595.47;10602660;27;2631;-72
2023/11/17 00:52:45;;;;;;;;;;;;;;;6.86;100.00;94642.53;10603301;27;2576;-70
2023/11/17 00:57:47;;;;;;;;;;;;;;;6.39;100.00;94707.94;10603328;27;2566;-74
2023/11/17 01:02:50;;;;;;;;;;;;;;;6.06;100.00;94735.28;10602425;27;2621;-72
2023/11/17 01:07:53;;;;;;;;;;;;;;;5.89;100.00;94764.88;10602864;27;2543;-69
2023/11/17 01:12:55;;;;;;;;;;;;;;;5.82;100.00;94775.81;10590718;27;5213;-70
2023/11/17 01:17:58;;;;;;;;;;;;;;;5.71;100.00;94792.88;10602889;27;2567;-70
2023/11/17 01:23:01;;;;;;;;;;;;;;;5.66;100.00;94814.19;10592843;27;2552;-71
2023/11/17 01:28:04;;;;;;;;;;;;;;;5.47;100.00;94837.91;10596665;27;2710;-68
2023/11/17 01:33:09;;;;;;;;;;;;;;;5.29;100.00;94865.06;10597388;27;2598;-70
2023/11/17 01:38:12;;;;;;;;;;;;;;;4.84;100.00;94877.94;10597288;27;2627;-70
2023/11/17 01:43:16;;;;;;;;;;;;;;;4.65;100.00;94906.06;10602379;27;2730;-73
2023/11/17 01:48:19;;;;;;;;;;;;;;;4.43;100.00;94913.34;10590346;27;2690;-72
2023/11/17 01:53:22;;;;;;;;;;;;;;;4.15;100.00;94941.09;10590688;27;2655;-68
2023/11/17 01:58:27;;;;;;;;;;;;;;;4.19;100.00;94969.56;10599595;27;2559;-70
2023/11/17 02:03:29;;;;;;;;;;;;;;;4.21;100.00;94996.75;10597668;27;3016;-70
2023/11/17 02:08:32;;;;;;;;;;;;;;;4.12;100.00;95024.03;10598864;27;2628;-70
2023/11/17 02:13:36;;;;;;;;;;;;;;;4.01;100.00;95047.88;10602144;27;5362;-70
2023/11/17 02:18:40;;;;;;;;;;;;;;;3.92;100.00;95067.16;10575241;27;2626;-70
2023/11/17 02:23:42;;;;;;;;;;;;;;;3.92;100.00;95078.59;10601607;27;2641;-70
2023/11/17 02:28:45;;;;;;;;;;;;;;;3.76;100.00;95085.63;10590591;27;2623;-69
2023/11/17 02:33:48;;;;;;;;;;;;;;;3.75;100.00;95123.88;10592315;27;2562;-71
2023/11/17 02:38:53;;;;;;;;;;;;;;;3.53;100.00;95131.03;10593831;27;2607;-69
2023/11/17 02:43:56;;;;;;;;;;;;;;;3.34;100.00;95148.28;10592060;27;2614;-70
2023/11/17 02:48:59;;;;;;;;;;;;;;;3.34;100.00;95173.00;10591117;27;2584;-71
2023/11/17 02:54:02;;;;;;;;;;;;;;;3.19;100.00;95189.50;10594956;27;2616;-70
2023/11/17 02:59:04;;;;;;;;;;;;;;;3.17;100.00;95214.69;10593208;27;2582;-69
2023/11/17 03:04:12;;;;;;;;;;;;;;;3.15;100.00;95233.50;10595233;27;2742;-70
2023/11/17 03:09:15;;;;;;;;;;;;;;;3.15;100.00;95246.78;10586443;27;2578;-70
2023/11/17 03:14:17;;;;;;;;;;;;;;;3.03;100.00;95251.34;10592093;27;5059;-69
2023/11/17 03:19:20;;;;;;;;;;;;;;;2.87;100.00;95273.38;10588085;27;2637;-69
2023/11/17 03:24:23;;;;;;;;;;;;;;;2.97;100.00;95284.97;10593157;27;2673;-70
2023/11/17 03:29:26;;;;;;;;;;;;;;;2.86;100.00;95306.25;10595343;27;2674;-70
2023/11/17 03:34:29;;;;;;;;;;;;;;;2.90;100.00;95320.69;10578764;27;2630;-70
2023/11/17 03:39:32;;;;;;;;;;;;;;;2.87;100.00;95348.50;10606481;27;2787;-71
2023/11/17 03:44:36;;;;;;;;;;;;;;;2.91;100.00;95368.22;10600295;27;2584;-70
2023/11/17 03:49:38;;;;;;;;;;;;;;;2.83;100.00;95373.91;10600615;27;2678;-70
2023/11/17 03:54:40;;;;;;;;;;;;;;;2.76;100.00;95388.34;10599538;27;2593;-74
2023/11/17 03:59:46;;;;;;;;;;;;;;;2.70;100.00;95401.50;10603835;27;2667;-71
2023/11/17 04:04:49;;;;;;;;;;;;;;;2.72;100.00;95420.66;10600952;27;2579;-70
2023/11/17 04:09:51;;;;;;;;;;;;;;;2.68;100.00;95432.78;10604888;27;2572;-69
2023/11/17 04:14:54;;;;;;;;;;;;;;;2.76;100.00;95449.41;10597694;27;5059;-69
2023/11/17 04:19:56;;;;;;;;;;;;;;;2.63;100.00;95464.53;10598335;27;2815;-70
2023/11/17 04:24:59;;;;;;;;;;;;;;;2.65;100.00;95473.06;10605093;27;2677;-70
2023/11/17 04:30:01;;;;;;;;;;;;;;;2.56;100.00;95477.09;10602067;27;2568;-69
2023/11/17 04:35:04;;;;;;;;;;;;;;;2.47;100.00;95491.72;10601191;27;2618;-70
2023/11/17 04:40:09;;;;;;;;;;;;;;;2.47;100.00;95501.53;10604448;27;2570;-72
2023/11/17 04:45:12;;;;;;;;;;;;;;;2.40;100.00;95512.25;10598223;27;2613;-74
2023/11/17 04:50:14;;;;;;;;;;;;;;;2.45;100.00;95533.59;10601120;27;2703;-73
2023/11/17 04:55:17;;;;;;;;;;;;;;;2.41;100.00;95530.59;10605704;27;2635;-76
2023/11/17 05:00:20;;;;;;;;;;;;;;;2.51;100.00;95550.47;10605685;27;3051;-70
2023/11/17 05:05:22;;;;;;;;;;;;;;;2.60;100.00;95563.16;10606557;27;2702;-69
2023/11/17 05:10:26;;;;;;;;;;;;;;;2.67;100.00;95566.53;10612316;27;2540;-69
2023/11/17 05:15:28;;;;;;;;;;;;;;;2.70;100.00;95566.06;10608513;27;2567;-70
2023/11/17 05:20:32;;;;;;;;;;;;;;;2.69;100.00;95577.72;10601804;27;2636;-70
2023/11/17 05:25:34;;;;;;;;;;;;;;;2.68;100.00;95573.47;10602031;27;2685;-72
2023/11/17 05:30:37;;;;;;;;;;;;;;;2.71;100.00;95582.78;10605896;27;2657;-69
2023/11/17 05:35:40;;;;;;;;;;;;;;;2.65;100.00;95589.81;10605413;27;2565;-70
2023/11/17 05:40:44;;;;;;;;;;;;;;;2.70;100.00;95592.59;10598154;27;2632;-69
2023/11/17 05:45:50;;;;;;;;;;;;;;;2.87;100.00;95614.00;10602676;27;2634;-74
2023/11/17 05:50:54;;;;;;;;;;;;;;;2.83;100.00;95619.97;10597680;27;2658;-70
2023/11/17 05:55:57;;;;;;;;;;;;;;;2.84;100.00;95634.88;10597252;27;2696;-71
2023/11/17 06:00:59;;;;;;;;;;;;;;;2.93;100.00;95633.50;10599125;27;2600;-75
2023/11/17 06:06:02;;;;;;;;;;;;;;;3.00;100.00;95644.03;10594834;27;2639;-71
2023/11/17 06:11:05;;;;;;;;;;;;;;;3.03;100.00;95660.28;10597583;27;2670;-70
2023/11/17 06:16:11;;;;;;;;;;;;;;;3.10;100.00;95655.69;10591709;27;5226;-70
2023/11/17 06:21:14;;;;;;;;;;;;;;;3.15;100.00;95669.09;10594169;27;2609;-73
2023/11/17 06:26:17;;;;;;;;;;;;;;;3.17;100.00;95672.31;10592074;27;2741;-70
2023/11/17 06:31:19;;;;;;;;;;;;;;;3.30;100.00;95670.47;10595295;27;2610;-71
2023/11/17 06:36:22;;;;;;;;;;;;;;;3.28;100.00;95683.19;10593885;27;2723;-73
2023/11/17 06:41:24;;;;;;;;;;;;;;;3.33;100.00;95691.28;10593784;27;2615;-70
2023/11/17 06:46:27;;;;;;;;;;;;;;;3.27;100.00;95693.00;10600941;27;2786;-70
2023/11/17 06:51:31;;;;;;;;;;;;;;;3.37;100.00;95700.41;10589767;27;2952;-72
2023/11/17 06:56:34;;;;;;;;;;;;;;;3.42;100.00;95701.34;10589257;27;2821;-71
2023/11/17 07:01:36;;;;;;;;;;;;;;;3.38;100.00;95716.13;10591083;27;2582;-70
2023/11/17 07:06:39;;;;;;;;;;;;;;;3.49;100.00;95719.81;10587540;27;2730;-72
2023/11/17 07:11:41;;;;;;;;;;;;;;;3.62;100.00;95727.56;10582610;27;2745;-72
2023/11/17 07:16:46;;;;;;;;;;;;;;;3.61;100.00;95731.28;10589577;27;5405;-69
2023/11/17 07:21:48;;;;;;;;;;;;;;;3.66;100.00;95744.69;10591895;27;2591;-69
2023/11/17 07:26:50;;;;;;;;;;;;;;;3.70;100.00;95753.84;10592867;27;2615;-68
2023/11/17 07:31:54;;;;;;;;;;;;;;;3.65;100.00;95763.53;10597041;27;2584;-67
2023/11/17 07:36:57;;;;;;;;;;;;;;;3.61;100.00;95773.81;10593936;27;2631;-68
2023/11/17 07:41:59;;;;;;;;;;;;;;;3.65;100.00;95779.47;10586137;27;2639;-71
2023/11/17 07:47:04;;;;;;;;;;;;;;;3.70;100.00;95784.94;10586778;27;2691;-68
2023/11/17 07:52:07;;;;;;;;;;;;;;;3.70;100.00;95792.91;10589613;27;2622;-68
2023/11/17 07:57:10;;;;;;;;;;;;;;;3.87;100.00;95787.69;10589454;27;2576;-69
2023/11/17 08:02:12;;;;;;;;;;;;;;;3.84;100.00;95788.16;10591758;27;2606;-69
2023/11/17 08:07:17;;;;;;;;;;;;;;;3.75;100.00;95801.81;10592975;27;2589;-70
2023/11/17 08:12:19;;;;;;;;;;;;;;;3.74;100.00;95805.47;10586458;27;2616;-68
2023/11/17 08:17:22;;;;;;;;;;;;;;;3.89;100.00;95796.28;10591369;27;2621;-69
2023/11/17 08:22:27;;;;;;;;;;;;;;;3.93;100.00;95800.06;10586453;27;2644;-69
2023/11/17 08:27:29;;;;;;;;;;;;;;;3.91;100.00;95815.47;10598171;27;2681;-69
2023/11/17 08:32:32;;;;;;;;;;;;;;;3.91;100.00;95810.13;10592841;27;2570;-68
2023/11/17 08:37:35;;;;;;;;;;;;;;;3.88;100.00;95816.75;10595760;27;2547;-70
2023/11/17 08:42:38;;;;;;;;;;;;;;;3.89;100.00;95830.84;10594285;27;2552;-71
2023/11/17 08:47:40;;;;;;;;;;;;;;;3.93;100.00;95834.63;10579508;27;2629;-69
2023/11/17 08:52:43;;;;;;;;;;;;;;;3.96;100.00;95826.22;10578921;27;2606;-69
2023/11/17 08:57:46;;;;;;;;;;;;;;;4.02;100.00;95830.63;10593709;27;2727;-68
2023/11/17 09:02:49;;;;;;;;;;;;;;;4.12;100.00;95838.81;10591225;27;2620;-73
2023/11/17 09:07:52;;;;;;;;;;;;;;;4.04;100.00;95845.28;10591481;27;2532;-68
2023/11/17 09:12:54;;;;;;;;;;;;;;;4.05;100.00;95849.56;10595743;27;5204;-69
2023/11/17 09:17:56;;;;;;;;;;;;;;;4.25;100.00;95849.22;10592210;27;2559;-68
2023/11/17 09:22:59;;;;;;;;;;;;;;;4.16;100.00;95855.94;10591344;27;2607;-67
2023/11/17 09:28:02;;;;;;;;;;;;;;;4.20;100.00;95859.78;10593140;27;2614;-68
2023/11/17 09:33:05;;;;;;;;;;;;;;;4.11;100.00;95861.16;10591143;27;2597;-68
2023/11/17 09:38:09;;;;;;;;;;;;;;;4.07;100.00;95854.66;10591086;27;3070;-67
2023/11/17 09:43:16;;;;;;;;;;;;;;;4.03;100.00;95869.47;10595030;27;2560;-68
2023/11/17 09:48:19;;;;;;;;;;;;;;;4.18;100.00;95864.50;10602197;27;2576;-71
2023/11/17 09:53:21;;;;;;;;;;;;;;;4.58;100.00;95879.75;10594838;27;2640;-74
2023/11/17 09:58:24;;;;;;;;;;;;;;;4.54;100.00;95868.78;10588747;27;2665;-69
2023/11/17 10:03:27;;;;;;;;;;;;;;;4.56;100.00;95868.53;10569731;27;2549;-70
2023/11/17 10:08:29;;;;;;;;;;;;;;;4.30;100.00;95865.31;10595022;27;2572;-70
2023/11/17 10:13:32;;;;;;;;;;;;;;;4.28;100.00;95870.06;10597577;27;2557;-70
2023/11/17 10:18:34;;;;;;;;;;;;;;;4.41;100.00;95860.22;10589584;27;2681;-69
2023/11/17 10:23:38;;;;;;;;;;;;;;;4.52;100.00;95859.41;10592543;27;2576;-71
2023/11/17 10:28:41;;;;;;;;;;;;;;;4.61;100.00;95852.69;10595174;27;2675;-72
2023/11/17 10:33:44;;;;;;;;;;;;;;;4.70;100.00;95856.59;10590048;27;2594;-70
2023/11/17 10:38:47;;;;;;;;;;;;;;;4.83;100.00;95864.31;10594786;27;2634;-70
2023/11/17 10:43:50;;;;;;;;;;;;;;;4.98;100.00;95847.84;10575662;27;2557;-74
2023/11/17 10:48:53;;;;;;;;;;;;;;;5.00;100.00;95845.75;10594693;27;2620;-71
2023/11/17 10:53:55;;;;;;;;;;;;;;;5.14;100.00;95855.09;10594274;27;2606;-71
2023/11/17 10:58:58;;;;;;;;;;;;;;;5.29;100.00;95859.91;10593933;27;2619;-71
2023/11/17 11:04:01;;;;;;;;;;;;;;;5.24;100.00;95856.34;10600328;27;2701;-69
2023/11/17 11:09:06;;;;;;;;;;;;;;;5.47;100.00;95855.41;10592353;27;2690;-76
2023/11/17 11:14:08;;;;;;;;;;;;;;;5.47;100.00;95840.25;10592554;27;5130;-74
2023/11/17 11:19:13;;;;;;;;;;;;;;;5.39;100.00;95841.44;10594317;27;2559;-73
2023/11/17 11:24:25;;;;;;;;;;;;;;;5.57;100.00;95851.09;10593925;27;2630;-74
2023/11/17 11:29:40;;;;;;;;;;;;;;;5.55;100.00;95845.19;10587106;27;2733;-68
2023/11/17 11:34:43;;;;;;;;;;;;;;;5.75;100.00;95850.06;10590322;27;2580;-71
2023/11/17 11:39:46;;;;;;;;;;;;;;;5.76;100.00;95858.88;10565045;27;2590;-71
2023/11/17 11:44:51;;;;;;;;;;;;;;;5.72;100.00;95845.19;10566479;27;2596;-72
2023/11/17 11:49:53;;;;;;;;;;;;;;;5.84;100.00;95861.94;10591378;27;2605;-69
2023/11/17 11:54:56;;;;;;;;;;;;;;;5.94;100.00;95856.81;10591519;27;2636;-70
2023/11/17 11:59:59;;;;;;;;;;;;;;;5.93;100.00;95855.19;10599625;27;2602;-70
2023/11/17 12:05:03;;;;;;;;;;;;;;;6.18;100.00;95862.81;10600079;27;2677;-70
2023/11/17 12:10:09;;;;;;;;;;;;;;;5.99;100.00;95863.28;10601574;27;2786;-69
2023/11/17 12:15:12;;;;;;;;;;;;;;;6.27;100.00;95865.06;10597677;27;5199;-68
2023/11/17 12:20:17;;;;;;;;;;;;;;;6.13;100.00;95865.38;10600419;27;2630;-69
2023/11/17 12:25:20;;;;;;;;;;;;;;;6.15;100.00;95867.81;10595627;27;2655;-69
2023/11/17 12:30:24;;;;;;;;;;;;;;;6.07;100.00;95866.34;10599653;27;2766;-69
2023/11/17 12:35:28;;;;;;;;;;;;;;;6.17;100.00;95865.69;10598306;27;2607;-68
2023/11/17 12:40:32;;;;;;;;;;;;;;;6.31;100.00;95867.00;10596139;27;2613;-68
2023/11/17 12:45:34;;;;;;;;;;;;;;;6.12;100.00;95868.31;10596442;27;2658;-70
2023/11/17 12:50:37;;;;;;;;;;;;;;;6.10;100.00;95860.53;10591969;27;2609;-72
2023/11/17 12:55:41;;;;;;;;;;;;;;;6.38;100.00;95867.63;10598298;27;2674;-69
2023/11/17 13:00:46;;;;;;;;;;;;;;;6.53;100.00;95863.56;10590255;27;2687;-67
2023/11/17 13:05:50;;;;;;;;;;;;;;;6.34;100.00;95877.19;10589095;27;2691;-71
2023/11/17 13:10:53;;;;;;;;;;;;;;;5.82;100.00;95876.59;10592520;27;2737;-69
2023/11/17 13:15:56;;;;;;;;;;;;;;;5.59;100.00;95890.84;10598296;27;5186;-69
2023/11/17 13:21:00;;;;;;;;;;;;;;;5.50;100.00;95898.41;10598995;27;2595;-68
2023/11/17 13:26:05;;;;;;;;;;;;;;;5.38;100.00;95895.00;10590702;27;2635;-69
2023/11/17 13:31:09;;;;;;;;;;;;;;;5.41;100.00;95890.00;10593896;27;2704;-70
2023/11/17 13:36:11;;;;;;;;;;;;;;;5.29;100.00;95897.22;10591820;27;2601;-69
2023/11/17 13:41:14;;;;;;;;;;;;;;;5.50;100.00;95898.41;10588620;27;2669;-73
2023/11/17 13:46:17;;;;;;;;;;;;;;;5.27;100.00;95901.97;10596119;27;2551;-72
2023/11/17 13:51:20;;;;;;;;;;;;;;;5.13;100.00;95911.28;10588684;27;2796;-70
2023/11/17 13:56:24;;;;;;;;;;;;;;;5.00;100.00;95919.53;10594028;27;2598;-71
2023/11/17 14:01:27;;;;;;;;;;;;;;;5.10;100.00;95923.22;10575096;27;2660;-69
2023/11/17 14:06:29;;;;;;;;;;;;;;;5.30;100.00;95930.03;10594870;27;2639;-71
2023/11/17 14:11:32;;;;;;;;;;;;;;;5.37;100.00;95920.84;10581638;27;2556;-71
2023/11/17 14:16:34;;;;;;;;;;;;;;;5.20;100.00;95938.59;10597968;27;5243;-71
2023/11/17 14:21:37;;;;;;;;;;;;;;;5.31;100.00;95948.44;10592659;27;2536;-72
2023/11/17 14:26:40;;;;;;;;;;;;;;;5.22;100.00;95949.88;10594393;27;2595;-79
2023/11/17 14:31:43;;;;;;;;;;;;;;;5.25;100.00;95949.38;10589515;27;2660;-77
2023/11/17 14:36:45;;;;;;;;;;;;;;;5.24;100.00;95947.75;10593192;27;2595;-77
2023/11/17 14:41:50;;;;;;;;;;;;;;;5.12;100.00;95960.28;10596730;27;2547;-80
2023/11/17 14:46:54;;;;;;;;;;;;;;;5.08;100.00;95970.59;10586793;27;2602;-73
2023/11/17 14:51:59;;;;;;;;;;;;;;;5.06;100.00;95964.72;10587589;27;2604;-76
2023/11/17 14:57:02;;;;;;;;;;;;;;;5.06;100.00;95967.38;10592942;27;2616;-73
2023/11/17 15:02:06;;;;;;;;;;;;;;;5.14;100.00;95983.00;10590399;27;2566;-70
2023/11/17 15:07:09;;;;;;;;;;;;;;;5.17;100.00;95984.41;10592765;27;2615;-73
2023/11/17 15:12:12;;;;;;;;;;;;;;;5.09;100.00;95998.91;10592929;27;5134;-75
2023/11/17 15:17:15;;;;;;;;;;;;;;;5.13;100.00;95993.88;10586612;27;2721;-69
2023/11/17 15:22:18;;;;;;;;;;;;;;;5.15;100.00;95992.63;10586208;27;2674;-72
2023/11/17 15:27:20;;;;;;;;;;;;;;;5.12;100.00;95998.41;10594813;27;2782;-69
2023/11/17 15:32:24;;;;;;;;;;;;;;;5.22;100.00;96005.84;10594870;27;2604;-67
2023/11/17 15:37:28;;;;;;;;;;;;;;;5.29;100.00;96003.03;10597708;27;2658;-69
2023/11/17 15:42:31;;;;;;;;;;;;;;;5.24;100.00;96011.72;10597155;27;2865;-68
2023/11/17 15:47:33;;;;;;;;;;;;;;;5.19;100.00;96008.94;10601141;27;2583;-68
2023/11/17 15:52:36;;;;;;;;;;;;;;;5.06;100.00;96018.00;10596327;27;2626;-68
2023/11/17 15:57:40;;;;;;;;;;;;;;;5.11;100.00;96027.97;10607162;27;1982;-74
2023/11/17 16:02:43;;;;;;;;;;;;;;;5.12;100.00;96032.25;10608428;27;1513;-71
2023/11/17 16:07:49;;;;;;;;;;;;;;;5.11;100.00;96039.44;10612874;27;1827;-68
2023/11/17 16:12:52;;;;;;;;;;;;;;;5.18;100.00;96043.84;10607527;27;5130;-70
2023/11/17 16:17:54;;;;;;;;;;;;;;;5.06;100.00;96033.19;10618051;27;1942;-69
2023/11/17 16:23:00;;;;;;;;;;;;;;;5.08;100.00;96044.41;10610136;27;1474;-69
2023/11/17 16:28:05;;;;;;;;;;;;;;;4.96;100.00;96056.91;10603307;27;2299;-68
2023/11/17 16:33:09;;;;;;;;;;;;;;;4.97;100.00;96067.34;10616620;27;1574;-69
2023/11/17 16:38:11;;;;;;;;;;;;;;;4.96;100.00;96065.72;10606759;27;1974;-71
2023/11/17 16:43:14;;;;;;;;;;;;;;;4.89;100.00;96079.13;10605895;27;1542;-70
2023/11/17 16:48:20;;;;;;;;;;;;;;;4.87;100.00;96085.75;10609430;27;1998;-76
2023/11/17 16:53:24;;;;;;;;;;;;;;;4.81;100.00;96092.81;10608638;27;1485;-69
2023/11/17 16:58:26;;;;;;;;;;;;;;;4.80;100.00;96091.19;10615106;27;1995;-70
2023/11/17 17:03:29;;;;;;;;;;;;;;;4.76;100.00;96102.50;10610065;27;1523;-68
2023/11/17 17:08:34;;;;;;;;;;;;;;;4.72;100.00;96104.84;10617921;27;1482;-69
2023/11/17 17:13:40;;;;;;;;;;;;;;;4.75;100.00;96112.34;10616962;27;1662;-70
2023/11/17 17:18:42;;;;;;;;;;;;;;;4.73;100.00;96119.78;10612310;27;1945;-70
2023/11/17 17:23:45;;;;;;;;;;;;;;;4.87;100.00;96117.72;10614486;27;2364;-69
2023/11/17 17:28:48;;;;;;;;;;;;;;;4.88;100.00;96124.66;10594393;27;1565;-69
2023/11/17 17:33:51;;;;;;;;;;;;;;;4.86;100.00;96126.75;10610748;27;1846;-70
2023/11/17 17:38:54;;;;;;;;;;;;;;;4.93;100.00;96131.97;10611309;27;1981;-70
2023/11/17 17:43:57;;;;;;;;;;;;;;;5.02;100.00;96138.56;10614656;27;1787;-74
2023/11/17 17:48:59;;;;;;;;;;;;;;;5.00;100.00;96133.50;10620162;27;1406;-74
2023/11/17 17:54:02;;;;;;;;;;;;;;;4.84;100.00;96142.16;10614583;27;1737;-70
2023/11/17 17:59:06;;;;;;;;;;;;;;;4.82;100.00;96153.00;10609838;27;1923;-73
2023/11/17 18:04:09;;;;;;;;;;;;;;;4.71;100.00;96159.16;10606270;27;1567;-68
2023/11/17 18:09:12;;;;;;;;;;;;;;;4.80;100.00;96154.31;10607784;27;2513;-68
2023/11/17 18:14:15;;;;;;;;;;;;;;;4.69;100.00;96155.88;10614447;27;5436;-67
2023/11/17 18:19:17;;;;;;;;;;;;;;;4.74;100.00;96166.66;10613958;27;1974;-69
2023/11/17 18:24:20;;;;;;;;;;;;;;;4.74;100.00;96168.53;10611717;27;1882;-68
2023/11/17 18:29:23;;;;;;;;;;;;;;;4.61;100.00;96174.84;10609597;27;1757;-70
2023/11/17 18:34:25;;;;;;;;;;;;;;;4.61;100.00;96174.84;10615135;27;1411;-71
2023/11/17 18:39:30;;;;;;;;;;;;;;;4.63;100.00;96172.75;10607110;27;1933;-69
2023/11/17 18:44:33;;;;;;;;;;;;;;;4.60;100.00;96182.03;10609319;27;1580;-69
2023/11/17 18:49:36;;;;;;;;;;;;;;;4.54;100.00;96177.59;10611320;27;2574;-68
2023/11/17 18:54:39;;;;;;;;;;;;;;;4.57;100.00;96177.13;10616274;27;1648;-68
2023/11/17 18:59:41;;;;;;;;;;;;;;;4.58;100.00;96185.94;10616269;27;1905;-73
2023/11/17 19:04:44;;;;;;;;;;;;;;;4.55;100.00;96181.06;10611854;27;1615;-70
2023/11/17 19:09:46;;;;;;;;;;;;;;;4.64;100.00;96186.88;10612558;27;1571;-70
2023/11/17 19:14:49;;;;;;;;;;;;;;;4.70;100.00;96183.31;10611643;27;5465;-74
2023/11/17 19:19:51;;;;;;;;;;;;;;;4.70;100.00;96197.44;10612734;27;1918;-70
2023/11/17 19:24:55;;;;;;;;;;;;;;;4.78;100.00;96193.66;10611483;27;1450;-69
2023/11/17 19:29:57;;;;;;;;;;;;;;;4.86;100.00;96194.16;10616107;27;1482;-68
2023/11/17 19:35:00;;;;;;;;;;;;;;;4.88;100.00;96183.25;10612238;27;2842;-73
2023/11/17 19:40:06;;;;;;;;;;;;;;;4.95;100.00;96183.16;10610754;27;1976;-68
2023/11/17 19:45:10;;;;;;;;;;;;;;;4.85;100.00;96192.53;10607109;27;1477;-69
2023/11/17 19:50:13;;;;;;;;;;;;;;;4.86;100.00;96193.34;10607450;27;1578;-72
2023/11/17 19:55:19;;;;;;;;;;;;;;;4.85;100.00;96197.84;10613319;27;1586;-69
2023/11/17 20:00:24;;;;;;;;;;;;;;;4.80;100.00;96203.06;10602959;27;1985;-68
2023/11/17 20:05:28;;;;;;;;;;;;;;;4.80;100.00;96204.91;10606989;27;1536;-69
2023/11/17 20:10:31;;;;;;;;;;;;;;;4.76;100.00;96219.69;10611233;27;1514;-70
2023/11/17 20:15:37;;;;;;;;;;;;;;;4.74;100.00;96227.09;10608694;27;5218;-68
2023/11/17 20:20:39;;;;;;;;;;;;;;;4.76;100.00;96220.50;10610325;27;1974;-68
2023/11/17 20:25:44;;;;;;;;;;;;;;;4.73;100.00;96223.63;10615437;27;1477;-69
2023/11/17 20:30:47;;;;;;;;;;;;;;;4.72;100.00;96232.66;10617824;27;2279;-68
2023/11/17 20:35:50;;;;;;;;;;;;;;;4.77;100.00;96238.13;10618332;27;1501;-68
2023/11/17 20:40:53;;;;;;;;;;;;;;;4.74;100.00;96237.75;10592465;27;1979;-71
2023/11/17 20:45:59;;;;;;;;;;;;;;;4.71;100.00;96241.69;10612863;27;1533;-71
2023/11/17 20:51:04;;;;;;;;;;;;;;;4.64;100.00;96240.13;10613028;27;1537;-71
2023/11/17 20:56:07;;;;;;;;;;;;;;;4.54;100.00;96246.00;10617180;27;1490;-68
2023/11/17 21:01:12;;;;;;;;;;;;;;;4.53;100.00;96265.69;10612711;27;1988;-69
2023/11/17 21:06:17;;;;;;;;;;;;;;;4.54;100.00;96267.31;10619217;27;1746;-69
2023/11/17 21:11:21;;;;;;;;;;;;;;;4.51;100.00;96273.06;10613054;27;1494;-71
2023/11/17 21:16:26;;;;;;;;;;;;;;;4.46;100.00;96276.41;10611691;27;1725;-70
2023/11/17 21:21:28;;;;;;;;;;;;;;;4.49;100.00;96285.78;10613661;27;1938;-70
2023/11/17 21:26:31;;;;;;;;;;;;;;;4.48;100.00;96292.16;10615435;27;2366;-71
2023/11/17 21:31:35;;;;;;;;;;;;;;;4.48;100.00;96300.16;10611976;27;2475;-68
2023/11/17 21:36:37;;;;;;;;;;;;;;;4.50;100.00;96298.88;10597700;27;2587;-69
2023/11/17 21:41:40;;;;;;;;;;;;;;;4.45;100.00;96305.91;10600060;27;2649;-68
2023/11/17 21:46:43;;;;;;;;;;;;;;;4.41;100.00;96302.88;10597891;27;2690;-68
2023/11/17 21:51:45;;;;;;;;;;;;;;;4.30;100.00;96304.41;10576564;27;2668;-69
2023/11/17 21:56:48;;;;;;;;;;;;;;;4.27;100.00;96317.38;10600228;27;2734;-69
2023/11/17 22:01:53;;;;;;;;;;;;;;;4.28;100.00;96313.66;10593714;27;2722;-69
2023/11/17 22:06:58;;;;;;;;;;;;;;;4.26;100.00;96324.53;10596636;27;2706;-74
2023/11/17 22:12:01;;;;;;;;;;;;;;;4.28;100.00;96327.78;10596358;27;5186;-68
2023/11/17 22:17:03;;;;;;;;;;;;;;;4.26;100.00;96337.00;10592087;27;3005;-68
2023/11/17 22:22:07;;;;;;;;;;;;;;;4.22;100.00;96327.84;10597016;27;2613;-68
2023/11/17 22:27:10;;;;;;;;;;;;;;;4.27;100.00;96333.34;10593779;27;2655;-70
2023/11/17 22:32:12;;;;;;;;;;;;;;;4.25;100.00;96330.06;10598039;27;2686;-69
2023/11/17 22:37:15;;;;;;;;;;;;;;;4.32;100.00;96344.94;10597432;27;2661;-69
2023/11/17 22:42:17;;;;;;;;;;;;;;;4.22;100.00;96334.00;10576970;27;2595;-70
2023/11/17 22:47:20;;;;;;;;;;;;;;;4.28;100.00;96334.97;10592316;27;2684;-68
2023/11/17 22:52:22;;;;;;;;;;;;;;;4.26;100.00;96345.84;10590005;27;2688;-70
2023/11/17 22:57:25;;;;;;;;;;;;;;;4.30;100.00;96346.19;10597036;27;2578;-74
2023/11/17 23:02:28;;;;;;;;;;;;;;;4.28;100.00;96357.06;10583194;27;2658;-68
2023/11/17 23:07:31;;;;;;;;;;;;;;;4.32;100.00;96374.19;10590769;27;2663;-68
2023/11/17 23:12:34;;;;;;;;;;;;;;;4.31;100.00;96367.25;10593436;27;5134;-69
2023/11/17 23:17:38;;;;;;;;;;;;;;;4.32;100.00;96368.06;10591889;27;3024;-67
2023/11/17 23:22:41;;;;;;;;;;;;;;;4.47;100.00;96365.06;10593915;27;2592;-70
2023/11/17 23:27:43;;;;;;;;;;;;;;;4.44;100.00;96362.84;10594348;27;2618;-67
2023/11/17 23:32:47;;;;;;;;;;;;;;;4.38;100.00;96366.38;10594381;27;2715;-68
2023/11/17 23:37:50;;;;;;;;;;;;;;;4.31;100.00;96379.75;10593892;27;2741;-68
2023/11/17 23:42:53;;;;;;;;;;;;;;;4.32;100.00;96373.38;10592069;27;2613;-67
2023/11/17 23:47:56;;;;;;;;;;;;;;;4.32;100.00;96382.19;10592822;27;2670;-67
2023/11/17 23:52:58;;;;;;;;;;;;;;;4.41;100.00;96373.94;10572920;27;2597;-70
2023/11/17 23:58:01;;;;;;;;;;;;;;;4.37;100.00;96386.06;10602979;27;2642;-67
